Time;durP1;ratioP1;P1;durP2;ratioP2;P2;SDS_P1;SDS_P2;PMS_P1;PMS_P2;Temp;Humidity;BMP_temperature;BMP_pressure;BME280_temperature;BME280_humidity;BME280_pressure;Samples;Min_cycle;Max_cycle;Signal;HPM_P1;HPM_P2
2023/09/21 00:00:50;;;;;;;4.80;3.28;;;17.60;99.90;;;;;;4992831;28;20050;-63
2023/09/21 00:03:16;;;;;;;3.80;2.67;;;17.70;99.90;;;;;;5010951;28;20053;-62
2023/09/21 00:05:46;;;;;;;6.43;2.80;;;17.60;99.90;;;;;;5010323;28;20046;-63
2023/09/21 00:08:12;;;;;;;6.20;3.15;;;17.60;99.90;;;;;;5010635;28;20427;-62
2023/09/21 00:10:42;;;;;;;5.88;2.50;;;17.70;99.90;;;;;;5010879;28;20050;-64
2023/09/21 00:13:08;;;;;;;6.18;2.92;;;17.70;99.90;;;;;;5010765;28;20304;-64
2023/09/21 00:15:34;;;;;;;3.35;2.50;;;17.70;99.90;;;;;;5010177;28;20061;-63
2023/09/21 00:18:04;;;;;;;4.38;2.97;;;17.70;99.90;;;;;;5010797;28;20046;-62
2023/09/21 00:20:42;;;;;;;7.15;3.15;;;17.70;99.90;;;;;;5010451;28;20061;-64
2023/09/21 00:23:09;;;;;;;4.25;2.80;;;17.80;99.90;;;;;;5011005;28;20117;-62
2023/09/21 00:25:36;;;;;;;5.18;2.67;;;17.70;99.90;;;;;;4992683;28;20049;-63
2023/09/21 00:28:07;;;;;;;4.50;2.70;;;17.80;99.90;;;;;;5010615;28;20088;-62
2023/09/21 00:30:37;;;;;;;4.35;2.78;;;17.70;99.90;;;;;;5010805;28;20434;-62
2023/09/21 00:33:07;;;;;;;5.28;2.88;;;17.70;99.90;;;;;;5010524;28;20042;-62
2023/09/21 00:35:39;;;;;;;5.30;2.90;;;17.80;99.90;;;;;;4992690;28;20068;-63
2023/09/21 00:38:14;;;;;;;5.68;2.90;;;17.80;99.90;;;;;;5009840;28;20050;-64
2023/09/21 00:40:44;;;;;;;4.20;2.65;;;17.70;99.90;;;;;;5010558;28;20049;-63
2023/09/21 00:43:20;;;;;;;4.85;3.05;;;17.70;99.90;;;;;;5010220;28;20053;-63
2023/09/21 00:45:53;;;;;;;4.45;2.90;;;17.70;99.90;;;;;;5009751;28;20050;-64
2023/09/21 00:48:33;;;;;;;6.25;3.08;;;17.70;99.90;;;;;;5010535;28;20050;-64
2023/09/21 00:51:05;;;;;;;4.05;2.40;;;17.70;99.90;;;;;;5010454;28;20435;-64
2023/09/21 00:53:31;;;;;;;5.72;2.97;;;17.70;99.90;;;;;;4993037;28;20093;-64
2023/09/21 00:56:03;;;;;;;4.68;2.70;;;17.70;99.90;;;;;;5010536;28;20065;-64
2023/09/21 00:58:31;;;;;;;5.95;2.90;;;17.70;99.90;;;;;;5010148;28;20054;-63
2023/09/21 01:00:59;;;;;;;6.95;2.78;;;17.70;99.90;;;;;;5009877;28;20439;-64
2023/09/21 01:03:27;;;;;;;4.15;2.83;;;17.70;99.90;;;;;;5010167;28;20304;-64
2023/09/21 01:05:54;;;;;;;5.07;2.78;;;17.80;99.90;;;;;;5009461;28;20370;-65
2023/09/21 01:08:28;;;;;;;4.97;2.45;;;17.80;99.90;;;;;;5010265;28;20308;-64
2023/09/21 01:10:55;;;;;;;4.25;2.50;;;17.80;99.90;;;;;;5009687;28;20047;-64
2023/09/21 01:13:24;;;;;;;5.30;2.78;;;17.90;99.90;;;;;;5008751;28;20058;-64
2023/09/21 01:16:04;;;;;;;4.10;2.58;;;17.80;99.90;;;;;;5009103;28;20050;-63
2023/09/21 01:18:32;;;;;;;4.57;2.72;;;17.80;99.90;;;;;;5009647;28;20060;-64
2023/09/21 01:21:00;;;;;;;3.50;2.67;;;17.80;99.90;;;;;;4992257;28;20156;-64
2023/09/21 01:23:42;;;;;;;4.93;2.70;;;17.80;99.90;;;;;;5009678;28;20073;-63
2023/09/21 01:26:10;;;;;;;4.88;2.70;;;17.80;99.90;;;;;;4991677;28;20542;-64
2023/09/21 01:28:37;;;;;;;4.47;2.72;;;17.90;99.90;;;;;;5009742;28;20046;-63
2023/09/21 01:31:05;;;;;;;6.40;2.22;;;17.80;99.90;;;;;;5009679;28;20359;-63
2023/09/21 01:33:33;;;;;;;4.55;2.80;;;17.90;99.90;;;;;;5008927;28;20069;-63
2023/09/21 01:35:59;;;;;;;4.38;2.95;;;17.90;99.90;;;;;;5009618;28;20065;-63
2023/09/21 01:38:27;;;;;;;4.53;2.80;;;17.90;99.90;;;;;;5009484;28;20144;-63
2023/09/21 01:40:53;;;;;;;5.38;2.60;;;18.00;99.90;;;;;;5009634;28;20090;-64
2023/09/21 01:43:20;;;;;;;5.25;2.70;;;17.90;99.90;;;;;;5009208;28;20046;-64
2023/09/21 01:45:48;;;;;;;4.47;2.70;;;18.00;99.90;;;;;;5009039;28;20038;-63
2023/09/21 01:48:16;;;;;;;3.72;2.60;;;18.00;99.90;;;;;;5008982;28;20431;-63
2023/09/21 01:50:46;;;;;;;4.18;2.72;;;18.00;99.90;;;;;;4992179;28;20197;-63
2023/09/21 01:53:13;;;;;;;4.13;2.60;;;17.90;99.90;;;;;;5009720;28;20068;-64
2023/09/21 01:55:40;;;;;;;3.88;2.83;;;18.00;99.90;;;;;;5009217;28;20050;-62
2023/09/21 01:58:11;;;;;;;3.40;2.60;;;18.00;99.90;;;;;;5009432;28;20128;-64
2023/09/21 02:00:43;;;;;;;5.13;2.50;;;18.10;99.90;;;;;;5009664;28;20049;-64
2023/09/21 02:03:12;;;;;;;4.50;2.40;;;18.00;99.90;;;;;;5009584;28;20046;-62
2023/09/21 02:05:42;;;;;;;4.68;2.90;;;18.10;99.90;;;;;;5008895;28;20053;-64
2023/09/21 02:08:11;;;;;;;4.10;2.45;;;18.10;99.90;;;;;;5009559;28;20140;-64
2023/09/21 02:10:40;;;;;;;4.22;2.50;;;18.00;99.90;;;;;;5009494;28;20045;-63
2023/09/21 02:13:07;;;;;;;6.00;2.50;;;18.20;99.90;;;;;;5009491;28;20073;-64
2023/09/21 02:15:37;;;;;;;7.03;3.05;;;18.00;99.90;;;;;;5008721;28;20429;-63
2023/09/21 02:18:08;;;;;;;4.88;2.63;;;18.00;99.90;;;;;;5009306;28;20222;-63
2023/09/21 02:20:38;;;;;;;4.82;2.60;;;18.00;99.90;;;;;;5009637;28;20045;-63
2023/09/21 02:23:05;;;;;;;3.67;2.38;;;18.10;99.90;;;;;;5009837;28;20053;-64
2023/09/21 02:25:34;;;;;;;4.97;2.25;;;18.00;99.90;;;;;;5012181;28;20050;-63
2023/09/21 02:28:09;;;;;;;4.63;2.70;;;18.00;99.90;;;;;;5012615;28;20046;-64
2023/09/21 02:30:37;;;;;;;5.15;2.67;;;18.00;99.90;;;;;;5012919;28;20152;-64
2023/09/21 02:33:07;;;;;;;3.22;2.65;;;18.00;99.90;;;;;;5012551;28;20082;-64
2023/09/21 02:35:34;;;;;;;4.43;2.40;;;18.00;99.90;;;;;;5012122;28;20050;-64
2023/09/21 02:38:05;;;;;;;2.67;2.10;;;18.00;99.90;;;;;;5012335;28;20072;-64
2023/09/21 02:40:31;;;;;;;3.60;2.63;;;18.00;99.90;;;;;;5012934;28;20045;-62
2023/09/21 02:42:57;;;;;;;3.40;2.35;;;18.10;99.90;;;;;;5012447;28;20099;-63
2023/09/21 02:45:25;;;;;;;4.05;2.13;;;17.90;99.90;;;;;;5011649;28;20041;-65
2023/09/21 02:47:54;;;;;;;5.10;2.53;;;18.00;99.90;;;;;;5012448;28;20046;-63
2023/09/21 02:50:22;;;;;;;3.95;2.50;;;18.00;99.90;;;;;;5012238;28;20077;-63
2023/09/21 02:52:54;;;;;;;4.75;2.60;;;18.00;99.90;;;;;;5012513;28;20050;-64
2023/09/21 02:55:22;;;;;;;4.30;2.38;;;17.90;99.90;;;;;;4994019;28;20085;-62
2023/09/21 02:57:58;;;;;;;3.47;2.40;;;17.90;99.90;;;;;;4994871;28;20050;-64
2023/09/21 03:00:34;;;;;;;2.78;2.20;;;18.00;99.90;;;;;;5012198;28;20378;-64
2023/09/21 03:03:04;;;;;;;3.63;2.28;;;18.00;99.90;;;;;;5012230;28;20060;-63
2023/09/21 03:05:33;;;;;;;3.97;2.20;;;17.90;99.90;;;;;;5011323;28;20390;-63
2023/09/21 03:10:56;;;;;;;5.57;2.83;;;17.90;99.90;;;;;;4995025;28;20057;-62
2023/09/21 03:13:23;;;;;;;5.15;2.88;;;17.90;99.90;;;;;;5011509;28;20060;-64
2023/09/21 03:15:51;;;;;;;4.55;2.70;;;17.90;99.90;;;;;;5011665;28;20093;-64
2023/09/21 03:18:19;;;;;;;4.95;2.60;;;17.90;99.90;;;;;;4994221;28;20646;-63
2023/09/21 03:20:45;;;;;;;5.15;2.63;;;17.80;99.90;;;;;;5011690;28;20058;-61
2023/09/21 03:23:13;;;;;;;4.57;2.35;;;17.80;99.90;;;;;;5011800;28;20374;-63
2023/09/21 03:25:45;;;;;;;4.45;2.70;;;17.80;99.90;;;;;;5011117;28;20166;-63
2023/09/21 03:28:13;;;;;;;4.13;2.70;;;17.80;99.90;;;;;;5011580;28;20057;-63
2023/09/21 03:30:47;;;;;;;4.88;2.45;;;17.80;99.90;;;;;;5011290;28;20364;-63
2023/09/21 03:33:15;;;;;;;4.05;2.65;;;17.80;99.90;;;;;;5011603;28;20058;-62
2023/09/21 03:35:42;;;;;;;4.63;3.00;;;17.70;99.90;;;;;;5010152;28;20252;-63
2023/09/21 03:38:12;;;;;;;3.83;2.67;;;17.80;99.90;;;;;;4993553;28;20064;-62
2023/09/21 03:40:43;;;;;;;5.07;2.72;;;17.90;99.90;;;;;;5011378;28;20064;-63
2023/09/21 03:43:10;;;;;;;3.78;2.30;;;17.80;99.90;;;;;;5011262;28;20057;-64
2023/09/21 03:45:37;;;;;;;5.05;2.78;;;17.80;99.90;;;;;;5010502;28;20042;-63
2023/09/21 03:48:08;;;;;;;3.65;2.78;;;17.90;99.90;;;;;;5011345;28;20049;-63
2023/09/21 03:50:35;;;;;;;3.65;2.55;;;17.80;99.90;;;;;;5011421;28;20053;-63
2023/09/21 03:53:04;;;;;;;5.18;2.47;;;17.90;99.90;;;;;;5011196;28;20119;-62
2023/09/21 03:55:32;;;;;;;5.45;2.50;;;18.00;99.90;;;;;;5010922;28;20073;-63
2023/09/21 03:57:58;;;;;;;4.22;3.00;;;18.00;99.90;;;;;;5011341;28;20053;-64
2023/09/21 04:03:02;;;;;;;4.60;2.70;;;18.00;99.90;;;;;;5011221;28;20046;-64
2023/09/21 04:05:34;;;;;;;3.78;2.67;;;18.00;99.90;;;;;;5009799;28;20057;-63
2023/09/21 04:08:01;;;;;;;3.75;2.42;;;17.90;99.90;;;;;;5011205;28;20045;-63
2023/09/21 04:10:28;;;;;;;4.47;2.53;;;17.90;99.90;;;;;;5010833;28;20442;-64
2023/09/21 04:12:57;;;;;;;6.03;2.88;;;18.00;99.90;;;;;;4977248;28;20053;-62
2023/09/21 04:15:28;;;;;;;4.75;2.40;;;18.00;99.90;;;;;;5010936;28;20501;-63
2023/09/21 04:17:55;;;;;;;2.97;2.65;;;18.00;99.90;;;;;;5010751;28;20088;-62
2023/09/21 04:20:22;;;;;;;3.70;2.78;;;18.00;99.90;;;;;;5011025;28;20052;-64
2023/09/21 04:22:52;;;;;;;4.13;2.53;;;18.10;99.90;;;;;;5011198;28;20045;-64
2023/09/21 04:25:18;;;;;;;4.13;2.72;;;18.10;99.90;;;;;;5010342;28;20180;-63
2023/09/21 04:27:47;;;;;;;3.65;2.83;;;18.10;99.90;;;;;;5010659;28;20054;-63
2023/09/21 04:30:21;;;;;;;5.28;2.45;;;18.10;99.90;;;;;;5010744;28;20050;-63
2023/09/21 04:32:48;;;;;;;5.22;2.65;;;18.00;99.90;;;;;;5010925;28;20077;-63
2023/09/21 04:35:18;;;;;;;3.78;2.55;;;18.10;99.90;;;;;;5009753;28;20054;-62
2023/09/21 04:37:45;;;;;;;5.00;2.90;;;18.10;99.90;;;;;;5010116;28;20454;-63
2023/09/21 04:40:12;;;;;;;3.10;2.25;;;18.10;99.90;;;;;;5011020;28;20291;-64
2023/09/21 04:42:40;;;;;;;4.93;2.80;;;18.10;99.90;;;;;;5010335;28;20046;-64
2023/09/21 04:45:09;;;;;;;3.47;2.92;;;18.00;99.90;;;;;;4992168;28;20053;-65
2023/09/21 04:47:43;;;;;;;4.13;2.35;;;18.00;99.90;;;;;;4992591;28;20050;-64
2023/09/21 04:50:10;;;;;;;5.90;2.72;;;18.10;99.90;;;;;;4977661;28;20109;-62
2023/09/21 04:52:37;;;;;;;4.38;2.75;;;18.10;99.90;;;;;;4992813;28;20057;-62
2023/09/21 04:55:04;;;;;;;3.85;2.58;;;18.20;99.90;;;;;;4991936;28;20445;-62
2023/09/21 04:57:31;;;;;;;4.55;2.50;;;18.10;99.90;;;;;;4992842;28;20393;-63
2023/09/21 04:59:58;;;;;;;3.88;2.60;;;18.10;99.90;;;;;;5010121;28;20069;-63
2023/09/21 05:02:25;;;;;;;5.40;2.85;;;18.10;99.90;;;;;;4992002;28;20049;-61
2023/09/21 05:04:52;;;;;;;3.97;2.63;;;18.10;99.90;;;;;;4991816;28;20049;-64
2023/09/21 05:07:19;;;;;;;4.80;2.92;;;18.10;99.90;;;;;;5009148;28;20042;-63
2023/09/21 05:09:45;;;;;;;4.72;2.42;;;18.10;99.90;;;;;;4991319;28;20067;-62
2023/09/21 05:12:12;;;;;;;5.10;2.80;;;18.10;99.90;;;;;;4991241;28;20046;-62
2023/09/21 05:14:39;;;;;;;4.85;2.55;;;18.10;99.90;;;;;;4988268;28;20042;-63
2023/09/21 05:17:06;;;;;;;4.18;2.67;;;18.10;99.90;;;;;;5008178;28;20101;-63
2023/09/21 05:19:33;;;;;;;4.65;2.67;;;18.10;99.90;;;;;;4992330;28;20517;-64
2023/09/21 05:22:00;;;;;;;3.50;2.55;;;18.10;99.90;;;;;;4992081;28;20167;-63
2023/09/21 05:24:27;;;;;;;4.05;2.70;;;18.10;99.90;;;;;;4975238;28;20100;-63
2023/09/21 05:26:54;;;;;;;4.93;2.85;;;18.10;99.90;;;;;;4992446;28;20054;-65
2023/09/21 05:29:21;;;;;;;3.90;2.53;;;18.10;99.90;;;;;;5010115;28;20061;-63
2023/09/21 05:31:49;;;;;;;9.88;3.63;;;18.10;99.90;;;;;;4991222;28;20045;-63
2023/09/21 05:34:16;;;;;;;43.22;8.82;;;18.20;99.90;;;;;;4991379;28;20486;-64
2023/09/21 05:36:47;;;;;;;8.95;3.25;;;18.20;99.90;;;;;;5009624;28;20069;-63
2023/09/21 05:39:17;;;;;;;4.93;2.97;;;18.30;99.90;;;;;;5009940;28;20163;-64
2023/09/21 05:41:47;;;;;;;6.18;2.88;;;18.40;99.90;;;;;;4992000;28;20501;-64
2023/09/21 05:44:13;;;;;;;5.53;2.47;;;18.40;99.90;;;;;;4974617;28;20420;-64
2023/09/21 05:46:40;;;;;;;7.22;2.67;;;18.40;99.90;;;;;;4992595;28;20101;-65
2023/09/21 05:49:07;;;;;;;6.03;2.67;;;18.40;99.90;;;;;;4992474;28;20058;-63
2023/09/21 05:51:39;;;;;;;3.80;2.47;;;18.50;99.90;;;;;;4992638;28;20086;-65
2023/09/21 05:54:06;;;;;;;5.15;2.80;;;18.50;99.90;;;;;;4992019;28;20120;-63
2023/09/21 05:56:32;;;;;;;4.57;3.33;;;18.50;99.90;;;;;;4992695;28;20328;-63
2023/09/21 05:59:06;;;;;;;6.20;2.90;;;18.60;99.90;;;;;;4993915;28;20050;-64
2023/09/21 06:01:33;;;;;;;4.97;2.95;;;18.50;99.90;;;;;;5013719;28;20050;-63
2023/09/21 06:04:02;;;;;;;4.90;2.97;;;18.60;99.90;;;;;;5011317;28;20057;-65
2023/09/21 06:06:29;;;;;;;4.57;2.47;;;18.60;99.90;;;;;;5011813;28;20383;-64
2023/09/21 06:08:56;;;;;;;18.70;4.68;;;18.60;99.90;;;;;;5011947;28;20064;-64
2023/09/21 06:11:25;;;;;;;5.63;2.80;;;18.60;99.90;;;;;;4994959;28;20060;-63
2023/09/21 06:13:54;;;;;;;19.45;4.60;;;18.60;99.90;;;;;;4993743;28;20135;-63
2023/09/21 06:16:21;;;;;;;6.50;3.13;;;18.70;99.90;;;;;;4994720;28;20474;-63
2023/09/21 06:18:49;;;;;;;5.05;2.72;;;18.70;99.90;;;;;;4994493;28;20042;-63
2023/09/21 06:21:17;;;;;;;4.72;2.65;;;18.80;99.90;;;;;;5013353;28;20057;-63
2023/09/21 06:23:44;;;;;;;5.63;2.95;;;18.70;99.90;;;;;;5011731;28;20054;-64
2023/09/21 06:26:14;;;;;;;4.20;2.65;;;18.80;99.90;;;;;;5010564;28;20046;-64
2023/09/21 06:28:47;;;;;;;4.80;2.95;;;18.80;99.90;;;;;;4995681;28;20053;-64
2023/09/21 06:31:14;;;;;;;3.33;2.40;;;18.80;99.90;;;;;;5012725;28;20088;-64
2023/09/21 06:33:41;;;;;;;4.95;3.00;;;18.80;99.90;;;;;;5012139;28;20073;-63
2023/09/21 06:36:18;;;;;;;10.95;3.40;;;18.80;99.90;;;;;;5011437;28;20058;-63
2023/09/21 06:38:45;;;;;;;4.57;2.88;;;18.70;99.90;;;;;;5012953;28;20050;-64
2023/09/21 06:41:11;;;;;;;18.17;4.97;;;18.70;99.90;;;;;;5012813;28;20057;-64
2023/09/21 06:43:39;;;;;;;6.82;3.03;;;18.60;99.90;;;;;;5012064;28;20390;-63
2023/09/21 06:46:06;;;;;;;4.20;2.45;;;18.60;99.90;;;;;;5010317;28;20526;-63
2023/09/21 06:48:32;;;;;;;4.95;2.95;;;18.60;99.90;;;;;;5013577;28;20058;-62
2023/09/21 06:51:00;;;;;;;5.97;3.00;;;18.50;99.90;;;;;;5014277;28;20050;-64
2023/09/21 06:53:28;;;;;;;11.45;4.00;;;18.50;99.90;;;;;;5013750;28;20117;-63
2023/09/21 06:55:56;;;;;;;10.65;3.50;;;18.50;99.90;;;;;;5014005;28;20042;-64
2023/09/21 06:58:22;;;;;;;9.80;3.00;;;18.50;99.90;;;;;;5014077;28;20403;-63
2023/09/21 07:00:48;;;;;;;8.10;2.88;;;18.50;99.90;;;;;;5014264;28;20064;-62
2023/09/21 07:03:17;;;;;;;3.38;2.72;;;18.60;99.90;;;;;;5013794;28;20824;-63
2023/09/21 07:05:46;;;;;;;4.18;2.80;;;18.50;99.90;;;;;;5013918;28;20057;-63
2023/09/21 07:08:13;;;;;;;4.50;2.60;;;18.60;99.90;;;;;;5013866;28;20069;-64
2023/09/21 07:10:39;;;;;;;3.95;3.00;;;18.60;99.90;;;;;;4996429;28;20054;-63
2023/09/21 07:13:06;;;;;;;4.43;2.63;;;18.60;99.90;;;;;;5013567;28;20064;-63
2023/09/21 07:15:33;;;;;;;6.95;3.10;;;18.60;99.90;;;;;;5013304;28;20131;-63
2023/09/21 07:18:00;;;;;;;5.55;3.05;;;18.50;99.90;;;;;;5013805;28;20050;-62
2023/09/21 07:20:26;;;;;;;5.20;2.80;;;18.50;99.90;;;;;;5013902;28;20135;-62
2023/09/21 07:22:53;;;;;;;4.78;2.88;;;18.40;99.90;;;;;;4994148;28;20046;-65
2023/09/21 07:25:19;;;;;;;5.07;2.88;;;18.40;99.90;;;;;;5004752;28;20046;-63
2023/09/21 07:27:46;;;;;;;6.25;4.25;;;18.40;99.90;;;;;;5015908;28;20053;-62
2023/09/21 07:30:13;;;;;;;3.88;3.33;;;18.40;99.90;;;;;;4995712;28;20589;-63
2023/09/21 07:32:40;;;;;;;6.78;2.97;;;18.30;99.90;;;;;;4996124;28;20066;-63
2023/09/21 07:35:06;;;;;;;5.75;3.60;;;18.20;99.90;;;;;;5023925;28;20053;-64
2023/09/21 07:37:33;;;;;;;4.40;3.40;;;18.20;99.90;;;;;;5013266;28;20061;-62
2023/09/21 07:40:06;;;;;;;3.58;2.85;;;18.20;99.90;;;;;;5013123;28;20584;-63
2023/09/21 07:42:36;;;;;;;5.03;3.13;;;18.20;99.90;;;;;;5013246;28;20382;-64
2023/09/21 07:45:02;;;;;;;5.00;3.25;;;18.20;99.90;;;;;;5012631;28;20046;-63
2023/09/21 07:47:29;;;;;;;4.78;3.13;;;18.10;99.90;;;;;;5013152;28;20049;-62
2023/09/21 07:49:55;;;;;;;4.25;3.03;;;18.20;99.90;;;;;;5012786;28;20061;-61
2023/09/21 07:52:26;;;;;;;5.85;3.22;;;18.10;99.90;;;;;;5013040;28;20058;-62
2023/09/21 07:54:53;;;;;;;5.35;3.20;;;18.10;99.90;;;;;;5012529;28;20053;-63
2023/09/21 07:57:19;;;;;;;6.20;3.80;;;18.10;99.90;;;;;;5013540;28;20058;-63
2023/09/21 07:59:45;;;;;;;4.43;3.30;;;18.10;99.90;;;;;;5012635;28;20050;-61
2023/09/21 08:02:12;;;;;;;5.68;3.28;;;17.90;99.90;;;;;;5012814;28;20050;-63
2023/09/21 08:04:38;;;;;;;5.00;3.38;;;17.90;99.90;;;;;;4994885;28;20070;-61
2023/09/21 08:07:05;;;;;;;4.32;3.03;;;17.90;99.90;;;;;;5012966;28;20050;-63
2023/09/21 08:09:32;;;;;;;4.72;3.65;;;17.90;99.90;;;;;;5012460;28;20145;-62
2023/09/21 08:11:58;;;;;;;6.53;3.15;;;17.90;99.90;;;;;;5012733;28;20054;-62
2023/09/21 08:14:26;;;;;;;4.45;2.90;;;17.90;99.90;;;;;;5011720;28;20100;-63
2023/09/21 08:16:55;;;;;;;6.43;3.40;;;17.80;99.90;;;;;;5012752;28;20050;-63
2023/09/21 08:19:22;;;;;;;6.47;3.65;;;17.80;99.90;;;;;;5012594;28;20046;-62
2023/09/21 08:21:48;;;;;;;5.95;3.70;;;17.70;99.90;;;;;;5011889;28;20042;-63
2023/09/21 08:24:14;;;;;;;5.82;3.72;;;17.70;99.90;;;;;;5011660;28;20467;-62
2023/09/21 08:26:41;;;;;;;4.22;3.20;;;17.70;99.90;;;;;;5012315;28;20422;-63
2023/09/21 08:29:07;;;;;;;4.50;3.28;;;17.60;99.90;;;;;;5012141;28;20422;-62
2023/09/21 08:31:33;;;;;;;6.13;3.83;;;17.60;99.90;;;;;;5012462;28;20049;-61
2023/09/21 08:34:00;;;;;;;5.68;3.42;;;17.60;99.90;;;;;;5011916;28;20413;-62
2023/09/21 08:36:28;;;;;;;6.30;4.10;;;17.50;99.90;;;;;;5011703;28;20089;-62
2023/09/21 08:38:54;;;;;;;6.97;3.70;;;17.50;99.90;;;;;;4994877;28;20054;-61
2023/09/21 08:41:21;;;;;;;6.97;4.00;;;17.40;99.90;;;;;;5012299;28;20053;-63
2023/09/21 08:43:48;;;;;;;5.78;3.63;;;17.30;99.90;;;;;;5011608;28;20137;-61
2023/09/21 08:46:16;;;;;;;10.82;4.20;;;17.20;99.90;;;;;;4994219;28;20058;-63
2023/09/21 08:48:44;;;;;;;15.70;4.38;;;17.10;99.90;;;;;;4994367;28;20069;-62
2023/09/21 08:51:11;;;;;;;9.23;3.45;;;17.00;99.90;;;;;;4994543;28;20431;-64
2023/09/21 08:53:39;;;;;;;4.18;2.40;;;16.90;99.90;;;;;;4993588;28;20064;-61
2023/09/21 08:56:08;;;;;;;2.80;2.33;;;16.90;99.90;;;;;;5011848;28;20056;-61
2023/09/21 08:58:40;;;;;;;3.97;1.95;;;16.80;99.90;;;;;;4994416;28;20057;-61
2023/09/21 09:01:11;;;;;;;3.15;1.92;;;16.60;99.90;;;;;;5012238;28;20057;-61
2023/09/21 09:03:37;;;;;;;2.70;1.65;;;16.50;99.90;;;;;;5011850;28;20045;-60
2023/09/21 09:06:04;;;;;;;3.08;1.65;;;16.50;99.90;;;;;;5011769;28;20054;-62
2023/09/21 09:08:30;;;;;;;2.85;1.70;;;16.50;99.90;;;;;;5012151;28;20106;-63
2023/09/21 09:10:57;;;;;;;3.47;1.60;;;16.40;99.90;;;;;;5012402;28;20050;-62
2023/09/21 09:13:33;;;;;;;3.30;1.60;;;16.30;99.90;;;;;;5012189;28;20049;-62
2023/09/21 09:16:03;;;;;;;2.47;1.38;;;16.20;99.90;;;;;;5012240;28;20330;-62
2023/09/21 09:18:32;;;;;;;2.00;1.40;;;16.20;99.90;;;;;;5012516;28;20067;-62
2023/09/21 09:20:59;;;;;;;3.33;1.42;;;16.20;99.90;;;;;;5012474;28;20071;-61
2023/09/21 09:23:26;;;;;;;3.70;1.52;;;16.20;99.90;;;;;;5012110;28;20060;-62
2023/09/21 09:25:54;;;;;;;2.63;1.65;;;16.20;99.90;;;;;;5012305;28;20042;-62
2023/09/21 09:28:21;;;;;;;4.63;1.60;;;16.20;99.90;;;;;;5012454;28;20073;-62
2023/09/21 09:30:48;;;;;;;2.63;1.40;;;16.10;99.90;;;;;;5012489;28;20060;-61
2023/09/21 09:33:15;;;;;;;2.97;1.50;;;16.00;99.90;;;;;;5015464;28;20049;-62
2023/09/21 09:35:42;;;;;;;2.40;1.50;;;16.10;99.90;;;;;;5016078;28;20050;-64
2023/09/21 09:38:09;;;;;;;2.85;1.50;;;16.10;99.90;;;;;;5015742;28;20046;-62
2023/09/21 09:40:37;;;;;;;2.40;1.55;;;16.10;99.90;;;;;;5016122;28;20053;-62
2023/09/21 09:43:07;;;;;;;4.47;1.50;;;16.10;99.90;;;;;;5015827;28;20302;-62
2023/09/21 09:45:37;;;;;;;2.33;1.60;;;16.00;99.90;;;;;;5015601;28;20544;-62
2023/09/21 09:48:11;;;;;;;3.08;1.77;;;16.10;99.90;;;;;;5016718;28;20149;-62
2023/09/21 09:50:41;;;;;;;3.17;1.60;;;16.20;99.90;;;;;;5016532;28;20477;-60
2023/09/21 09:53:13;;;;;;;2.78;1.50;;;16.10;99.90;;;;;;5016321;28;20046;-61
2023/09/21 09:55:43;;;;;;;2.42;1.20;;;16.00;99.90;;;;;;5016470;28;20370;-61
2023/09/21 09:58:10;;;;;;;2.20;1.30;;;16.00;99.90;;;;;;5016311;28;20050;-61
2023/09/21 10:00:39;;;;;;;2.90;1.60;;;16.00;99.90;;;;;;5016052;28;20046;-61
2023/09/21 10:03:09;;;;;;;3.17;1.77;;;15.90;99.90;;;;;;5015057;28;20462;-61
2023/09/21 10:05:39;;;;;;;4.13;1.48;;;16.00;99.90;;;;;;5015317;28;20378;-61
2023/09/21 10:08:07;;;;;;;2.53;1.42;;;16.10;99.90;;;;;;5015117;28;20054;-62
2023/09/21 10:10:42;;;;;;;7.63;2.53;;;16.10;99.90;;;;;;5015177;28;20065;-62
2023/09/21 10:13:08;;;;;;;4.95;1.98;;;16.10;99.90;;;;;;5015070;28;20046;-62
2023/09/21 10:15:35;;;;;;;5.20;2.08;;;16.20;99.90;;;;;;5014452;28;20406;-62
2023/09/21 10:18:01;;;;;;;4.38;2.03;;;16.30;99.90;;;;;;5015172;28;20058;-62
2023/09/21 10:20:30;;;;;;;3.22;1.80;;;16.40;99.90;;;;;;5015244;28;20061;-61
2023/09/21 10:22:59;;;;;;;2.42;1.23;;;16.40;99.90;;;;;;5014698;28;20061;-61
2023/09/21 10:25:46;;;;;;;3.33;1.08;;;16.30;99.90;;;;;;5014778;28;20460;-63
2023/09/21 10:28:27;;;;;;;2.90;1.30;;;16.40;99.90;;;;;;5015044;28;20041;-61
2023/09/21 10:30:54;;;;;;;4.88;1.58;;;16.30;99.90;;;;;;5014926;28;20049;-62
2023/09/21 10:33:22;;;;;;;3.10;1.20;;;16.60;99.90;;;;;;4997759;28;20440;-61
2023/09/21 10:35:49;;;;;;;2.45;1.30;;;16.60;99.90;;;;;;5014882;28;20042;-62
2023/09/21 10:38:17;;;;;;;3.20;1.40;;;16.80;99.90;;;;;;5013943;28;20054;-61
2023/09/21 10:40:44;;;;;;;4.53;1.50;;;16.90;99.90;;;;;;5013673;28;20496;-61
2023/09/21 10:43:42;;;;;;;2.08;1.30;;;16.90;99.90;;;;;;5013543;28;20046;-61
2023/09/21 10:46:20;;;;;;;2.47;1.10;;;16.80;99.90;;;;;;5012323;28;20053;-62
2023/09/21 10:48:48;;;;;;;2.08;1.30;;;16.60;99.90;;;;;;4995624;28;20053;-61
2023/09/21 10:51:15;;;;;;;1.95;1.40;;;16.50;99.90;;;;;;5013481;28;20050;-60
2023/09/21 10:53:42;;;;;;;1.88;1.02;;;16.50;99.90;;;;;;5013446;28;20386;-63
2023/09/21 10:56:08;;;;;;;2.25;1.27;;;16.30;99.90;;;;;;5013115;28;20042;-61
2023/09/21 10:58:34;;;;;;;1.90;1.40;;;16.40;99.90;;;;;;5013112;28;20049;-60
2023/09/21 11:01:01;;;;;;;2.97;1.05;;;16.50;99.90;;;;;;5013473;28;20432;-62
2023/09/21 11:03:28;;;;;;;1.92;1.33;;;16.60;99.90;;;;;;5013413;28;20056;-62
2023/09/21 11:05:54;;;;;;;1.95;1.17;;;16.50;99.90;;;;;;5013226;28;20084;-61
2023/09/21 11:08:24;;;;;;;2.20;1.38;;;16.40;99.90;;;;;;4996107;28;20095;-62
2023/09/21 11:10:51;;;;;;;1.92;1.30;;;16.50;99.90;;;;;;5013552;28;20332;-63
2023/09/21 11:13:18;;;;;;;2.13;1.02;;;16.40;99.90;;;;;;5013386;28;20066;-60
2023/09/21 11:15:45;;;;;;;1.58;1.20;;;16.40;99.90;;;;;;5012757;28;20492;-60
2023/09/21 11:18:12;;;;;;;2.35;1.75;;;16.40;99.90;;;;;;5013261;28;20168;-62
2023/09/21 11:20:40;;;;;;;2.88;1.33;;;16.50;99.90;;;;;;5013343;28;20057;-62
2023/09/21 11:23:10;;;;;;;2.13;1.10;;;16.40;99.90;;;;;;5013242;28;20381;-62
2023/09/21 11:25:36;;;;;;;1.80;1.20;;;16.40;99.90;;;;;;5012642;28;20053;-61
2023/09/21 11:28:03;;;;;;;2.53;1.75;;;16.50;99.90;;;;;;5012416;28;20052;-62
2023/09/21 11:30:29;;;;;;;2.33;1.30;;;16.40;99.90;;;;;;5012357;28;20068;-60
2023/09/21 11:32:57;;;;;;;2.42;1.45;;;16.40;99.90;;;;;;5012133;28;20407;-61
2023/09/21 11:35:25;;;;;;;2.47;1.55;;;16.20;99.90;;;;;;5012153;28;20062;-64
2023/09/21 11:37:52;;;;;;;2.88;1.67;;;16.10;99.90;;;;;;4976459;28;1048194;-63
2023/09/21 11:40:21;;;;;;;4.15;1.40;;;16.00;99.90;;;;;;4995339;28;20366;-61
2023/09/21 11:42:48;;;;;;;3.42;1.85;;;15.90;99.90;;;;;;5013524;28;20129;-60
2023/09/21 11:45:24;;;;;;;3.10;1.60;;;15.90;99.90;;;;;;5013646;28;20046;-63
2023/09/21 11:47:56;;;;;;;5.43;2.35;;;16.00;99.90;;;;;;5013936;28;20343;-63
2023/09/21 11:50:25;;;;;;;6.30;2.38;;;16.00;99.90;;;;;;5013957;28;20054;-64
2023/09/21 11:52:54;;;;;;;4.30;1.90;;;16.00;99.90;;;;;;5013483;28;20462;-59
2023/09/21 11:55:22;;;;;;;4.25;1.67;;;16.00;99.90;;;;;;5013567;28;20470;-60
2023/09/21 11:57:49;;;;;;;3.05;1.52;;;16.10;99.90;;;;;;5014081;28;20053;-61
2023/09/21 12:00:37;;;;;;;2.80;1.65;;;16.20;99.90;;;;;;4996279;28;20060;-62
2023/09/21 12:03:03;;;;;;;2.60;1.75;;;16.10;99.90;;;;;;4995762;28;20061;-61
2023/09/21 12:05:31;;;;;;;3.88;1.83;;;16.20;99.90;;;;;;4996086;28;20073;-61
2023/09/21 12:07:57;;;;;;;3.53;2.00;;;16.30;99.90;;;;;;4995987;28;20046;-62
2023/09/21 12:10:24;;;;;;;2.83;1.67;;;16.20;99.90;;;;;;4996146;28;20050;-62
2023/09/21 12:12:51;;;;;;;7.10;2.30;;;16.30;99.90;;;;;;5013117;28;20049;-62
2023/09/21 12:15:18;;;;;;;10.90;3.10;;;16.30;99.90;;;;;;4995785;28;20112;-61
2023/09/21 12:17:44;;;;;;;6.45;2.53;;;16.40;99.90;;;;;;4995695;28;20459;-62
2023/09/21 12:20:16;;;;;;;5.10;2.00;;;16.40;99.90;;;;;;4979558;28;20054;-62
2023/09/21 12:22:43;;;;;;;4.95;1.95;;;16.50;99.90;;;;;;4995472;28;20573;-63
2023/09/21 12:25:09;;;;;;;3.08;1.90;;;16.40;99.90;;;;;;5012922;28;20057;-61
2023/09/21 12:27:37;;;;;;;4.55;2.45;;;16.50;99.90;;;;;;4995429;28;20439;-60
2023/09/21 12:30:09;;;;;;;4.93;1.92;;;16.60;99.90;;;;;;4995432;28;20075;-63
2023/09/21 12:32:38;;;;;;;4.88;2.33;;;16.60;99.90;;;;;;4979572;28;20057;-60
2023/09/21 12:35:08;;;;;;;3.97;1.95;;;16.50;99.90;;;;;;4979209;28;20526;-62
2023/09/21 12:37:42;;;;;;;4.88;2.08;;;16.60;99.90;;;;;;5011553;28;20120;-63
2023/09/21 12:40:12;;;;;;;3.10;1.75;;;16.70;99.90;;;;;;4995539;28;20049;-62
2023/09/21 12:42:42;;;;;;;4.15;1.90;;;16.60;99.90;;;;;;5011957;28;20046;-61
2023/09/21 12:45:11;;;;;;;3.92;1.95;;;16.60;99.90;;;;;;5012459;28;20481;-61
2023/09/21 12:47:41;;;;;;;3.10;1.58;;;16.50;99.90;;;;;;5012691;28;20065;-60
2023/09/21 12:50:09;;;;;;;3.47;1.70;;;16.40;99.90;;;;;;4995116;28;20081;-61
2023/09/21 12:52:36;;;;;;;3.00;1.40;;;16.40;99.90;;;;;;5012099;28;20046;-62
2023/09/21 12:55:06;;;;;;;2.47;1.45;;;16.40;99.90;;;;;;5012479;28;20049;-61
2023/09/21 12:57:36;;;;;;;3.17;1.27;;;16.50;99.90;;;;;;5012737;28;20109;-63